createdAt,value
2022-09-05T00:00:00.274Z,994.8224
2022-09-05T00:01:00.412Z,995.0111
2022-09-05T00:02:00.554Z,994.888
2022-09-05T00:03:00.867Z,994.8515
2022-09-05T00:04:08.366Z,994.8585
2022-09-05T00:05:01.007Z,995.0177
2022-09-05T00:06:02.673Z,995.0613
2022-09-05T00:07:00.304Z,994.8585
2022-09-05T00:08:00.597Z,995.0396
2022-09-05T00:09:00.636Z,994.9095
2022-09-05T00:10:00.752Z,994.8804
2022-09-05T00:11:39.642Z,994.982
2022-09-05T00:12:01.036Z,994.9968
2022-09-05T00:13:07.557Z,994.9246
2022-09-05T00:14:00.357Z,995.0048
2022-09-05T00:15:14.673Z,994.9759
2022-09-05T00:16:00.678Z,994.9611
2022-09-05T00:17:00.777Z,994.9906
2022-09-05T00:19:42.252Z,994.9906
2022-09-05T00:24:18.846Z,994.9617
2022-09-05T00:24:19.487Z,995.0486
2022-09-05T00:24:22.616Z,994.8457
2022-09-05T00:24:26.953Z,994.6688
2022-09-05T00:24:30.498Z,994.8542
2022-09-05T00:24:32.021Z,994.9327
2022-09-05T00:25:21.381Z,994.8467
2022-09-05T00:26:01.120Z,994.868
2022-09-05T00:27:00.269Z,994.774
2022-09-05T00:28:02.105Z,994.7598
2022-09-05T00:29:00.600Z,994.8325
2022-09-05T00:31:06.726Z,994.8542
2022-09-05T00:31:51.042Z,994.6805
2022-09-05T00:32:01.083Z,994.6805
2022-09-05T00:33:01.177Z,994.8615
2022-09-05T00:34:00.344Z,994.7963
2022-09-05T00:35:00.480Z,994.7821
2022-09-05T00:36:01.175Z,994.804
2022-09-05T00:37:00.784Z,994.7679
2022-09-05T00:38:00.935Z,994.8187
2022-09-05T00:39:01.125Z,994.8842
2022-09-05T00:40:18.643Z,995.1228
2022-09-05T00:41:00.381Z,994.8122
2022-09-05T00:42:00.525Z,995.0296
2022-09-05T00:43:00.686Z,994.8996
2022-09-05T00:44:00.843Z,994.9575
2022-09-05T00:45:00.974Z,995.0301
2022-09-05T00:46:01.167Z,994.8854
2022-09-05T00:47:00.268Z,995.0229
2022-09-05T00:48:00.416Z,995.0012
2022-09-05T00:49:00.583Z,994.9433
2022-09-05T00:50:00.749Z,995.0518
2022-09-05T00:51:00.859Z,994.9797
2022-09-05T00:52:01.025Z,994.9219
2022-09-05T00:53:06.571Z,994.987
2022-09-05T00:54:00.310Z,995.0666
2022-09-05T00:55:00.476Z,994.8787
2022-09-05T00:56:00.609Z,995.067
2022-09-05T00:57:00.747Z,994.9878
2022-09-05T00:58:00.898Z,994.9878
2022-09-05T00:59:01.046Z,995.1035
2022-09-05T01:00:01.213Z,994.9593
2022-09-05T01:01:00.341Z,995.1116
2022-09-05T01:02:00.603Z,994.9597
2022-09-05T01:03:00.710Z,995.0541
2022-09-05T01:04:00.770Z,995.0252
2022-09-05T01:05:00.947Z,994.9308
2022-09-05T01:06:01.064Z,995.018
2022-09-05T01:07:01.218Z,994.939
2022-09-05T01:08:00.356Z,994.8957
2022-09-05T01:09:07.871Z,994.8597
2022-09-05T01:10:00.663Z,994.9258
2022-09-05T01:11:00.815Z,995.0485
2022-09-05T01:12:00.943Z,994.9548
2022-09-05T01:13:01.097Z,995.0703
2022-09-05T01:14:01.236Z,994.8969
2022-09-05T01:15:00.382Z,994.9543
2022-09-05T01:16:00.578Z,994.9035
2022-09-05T01:17:00.696Z,994.9611
2022-09-05T01:18:00.825Z,995.1349
2022-09-05T01:19:00.974Z,994.9324
2022-09-05T01:20:04.911Z,994.8386
2022-09-05T01:21:00.261Z,994.911
2022-09-05T01:22:00.430Z,994.9837
2022-09-05T01:23:00.554Z,994.9333
2022-09-05T01:24:00.699Z,994.9983
2022-09-05T01:25:00.858Z,994.9405
2022-09-05T01:26:01.005Z,994.9044
2022-09-05T01:27:01.181Z,995.0489
2022-09-05T01:29:13.274Z,995.0058
2022-09-05T01:29:15.344Z,994.9769
2022-09-05T01:30:00.599Z,995.0206
2022-09-05T01:31:00.826Z,994.9769
2022-09-05T01:32:00.909Z,995.0637
2022-09-05T01:33:06.159Z,994.8903
2022-09-05T01:34:01.183Z,994.97
2022-09-05T01:35:00.329Z,994.9846
2022-09-05T01:36:04.243Z,994.9557
2022-09-05T01:37:00.650Z,995.0713
2022-09-05T01:38:00.774Z,994.9126
2022-09-05T01:40:11.763Z,995.0935
2022-09-05T01:40:16.241Z,995.2091
2022-09-05T01:41:19.066Z,995.3247
2022-09-05T01:42:00.375Z,995.0935
2022-09-05T01:43:00.508Z,995.0935
2022-09-05T01:44:00.685Z,995.0143
2022-09-05T01:45:00.808Z,995.0143
2022-09-05T01:46:01.010Z,994.8703
2022-09-05T01:47:01.111Z,994.9429
2022-09-05T01:48:01.253Z,995.109
2022-09-05T01:49:00.423Z,994.9429
2022-09-05T01:50:01.070Z,994.856
2022-09-05T01:51:00.714Z,994.914
2022-09-05T01:52:00.857Z,995.0078
2022-09-05T01:53:02.269Z,995.0223
2022-09-05T01:54:01.183Z,995.0585
2022-09-05T01:55:00.293Z,995.0441
2022-09-05T01:56:05.615Z,994.9291
2022-09-05T01:57:00.597Z,994.9073
2022-09-05T01:58:00.736Z,994.8784
2022-09-05T01:59:00.907Z,994.994
2022-09-05T02:00:01.034Z,995.0304
2022-09-05T02:01:25.423Z,995.1243
2022-09-05T02:02:00.398Z,995.0234
2022-09-05T02:03:00.520Z,994.9224
2022-09-05T02:04:00.648Z,995.0311
2022-09-05T02:05:00.779Z,994.9373
2022-09-05T02:06:00.920Z,995.0674
2022-09-05T02:07:30.267Z,995.0026
2022-09-05T02:08:01.221Z,994.9956
2022-09-05T02:09:00.379Z,994.9956
2022-09-05T02:10:05.067Z,994.9379
2022-09-05T02:11:00.664Z,994.9379
2022-09-05T02:12:00.813Z,995.0245
2022-09-05T02:13:02.895Z,994.9813
2022-09-05T02:14:01.140Z,995.0177
2022-09-05T02:15:00.268Z,994.9312
2022-09-05T02:16:00.474Z,995.0756
2022-09-05T02:17:00.567Z,994.9387
2022-09-05T02:18:00.717Z,994.9751
2022-09-05T02:19:01.237Z,994.9173
2022-09-05T02:20:01.013Z,994.8094
2022-09-05T02:21:01.180Z,994.7735
2022-09-05T02:22:00.309Z,994.9326
2022-09-05T02:23:00.429Z,994.9254
2022-09-05T02:24:00.596Z,995.0986
2022-09-05T02:26:00.571Z,994.9762
2022-09-05T02:26:03.190Z,994.9401
2022-09-05T02:27:01.033Z,994.9112
2022-09-05T02:28:05.760Z,995.0267
2022-09-05T02:29:00.334Z,994.9907
2022-09-05T02:30:00.524Z,995.0124
2022-09-05T02:31:19.867Z,995.0124
2022-09-05T02:32:00.784Z,994.8971
2022-09-05T02:33:00.931Z,994.9695
2022-09-05T02:34:02.272Z,995.056
2022-09-05T02:35:01.246Z,994.9047
2022-09-05T02:36:00.384Z,994.8181
2022-09-05T02:37:00.536Z,994.8181
2022-09-05T02:40:06.154Z,994.847
2022-09-05T02:43:01.435Z,994.8615
2022-09-05T02:45:01.138Z,994.8038
2022-09-05T02:45:10.985Z,994.8758
2022-09-05T02:45:12.050Z,994.9984
2022-09-05T02:45:18.940Z,994.8829
2022-09-05T02:45:21.004Z,994.8539
2022-09-05T02:45:24.186Z,994.8904
2022-09-05T02:46:01.054Z,994.8975
2022-09-05T02:47:01.178Z,995.0059
2022-09-05T02:48:08.323Z,994.9269
2022-09-05T02:49:00.355Z,995.0283
2022-09-05T02:53:17.257Z,995.0572
2022-09-05T02:56:55.146Z,995.0283
2022-09-05T02:57:29.067Z,995.0861
2022-09-05T02:57:34.041Z,994.7551
2022-09-05T02:57:36.372Z,994.9137
2022-09-05T02:57:38.557Z,994.9133
2022-09-05T02:57:41.590Z,994.9567
2022-09-05T02:57:42.651Z,995.0287
2022-09-05T02:58:06.474Z,994.9133
2022-09-05T02:59:09.470Z,994.9781
2022-09-05T03:00:00.999Z,994.9492
2022-09-05T03:01:01.186Z,994.9852
2022-09-05T03:02:00.288Z,994.8702
2022-09-05T03:03:00.475Z,994.8417
2022-09-05T03:04:00.638Z,995.058
2022-09-05T03:05:04.624Z,995.0433
2022-09-05T03:06:00.900Z,994.9492
2022-09-05T03:07:01.052Z,995.0576
2022-09-05T03:08:01.212Z,995.007
2022-09-05T03:09:09.729Z,994.899
2022-09-05T03:10:00.505Z,994.9714
2022-09-05T03:11:00.654Z,995.058
2022-09-05T03:12:00.799Z,994.986
2022-09-05T03:13:00.944Z,994.8707
2022-09-05T03:14:01.104Z,994.8205
2022-09-05T03:15:01.282Z,994.77
2022-09-05T03:16:04.503Z,994.8564
2022-09-05T03:17:00.583Z,994.9789
2022-09-05T03:18:19.917Z,994.9354
2022-09-05T03:19:00.835Z,995.015
2022-09-05T03:20:00.995Z,995.0078
2022-09-05T03:21:09.282Z,994.8782
2022-09-05T03:22:00.271Z,994.9577
2022-09-05T03:23:00.422Z,995.0372
2022-09-05T03:24:00.572Z,994.8641
2022-09-05T03:25:00.728Z,994.9936
2022-09-05T03:26:00.894Z,994.8503
2022-09-05T03:27:01.042Z,994.951
2022-09-05T03:28:01.191Z,994.9222
2022-09-05T03:29:00.334Z,994.9582
2022-09-05T03:30:00.497Z,994.9657
2022-09-05T03:31:00.668Z,994.908
2022-09-05T03:32:00.803Z,994.9587
2022-09-05T03:33:00.916Z,994.9298
2022-09-05T03:34:01.103Z,994.8939
2022-09-05T03:35:08.213Z,994.9085
2022-09-05T03:36:00.350Z,995.0168
2022-09-05T03:37:00.497Z,995.0168
2022-09-05T03:38:00.644Z,994.9881
2022-09-05T03:39:00.817Z,994.9085
2022-09-05T03:40:15.410Z,994.9879
2022-09-05T03:41:01.091Z,995.0456
2022-09-05T03:42:01.240Z,995.0815
2022-09-05T03:43:00.380Z,994.9227
2022-09-05T03:44:00.552Z,995.0093
2022-09-05T03:45:00.671Z,995.0093
2022-09-05T03:46:00.856Z,994.9661
2022-09-05T03:47:00.998Z,994.995
2022-09-05T03:48:06.322Z,995.031
2022-09-05T03:49:12.921Z,994.9661
2022-09-05T03:52:59.763Z,995.0244
2022-09-05T03:56:16.094Z,994.9591
2022-09-05T03:57:05.714Z,995.0315
2022-09-05T03:57:15.329Z,994.9384
2022-09-05T03:57:17.190Z,994.9814
2022-09-05T03:57:18.607Z,994.9961
2022-09-05T03:57:18.758Z,995.0244
2022-09-05T03:57:27.999Z,995.0826
2022-09-05T03:58:03.446Z,995.0177
2022-09-05T03:59:01.419Z,995.0973
2022-09-05T04:00:00.342Z,995.0542
2022-09-05T04:01:13.937Z,994.9965
2022-09-05T04:03:58.935Z,994.8888
2022-09-05T04:08:08.851Z,995.2272
2022-09-05T04:08:11.632Z,995.1407
2022-09-05T04:08:15.213Z,995.0041
2022-09-05T04:08:25.310Z,994.8888
2022-09-05T04:08:26.111Z,995.0542
2022-09-05T04:08:29.180Z,995.0253
2022-09-05T04:09:01.058Z,995.0329
2022-09-05T04:10:01.232Z,995.0253
2022-09-05T04:11:01.364Z,994.9677
2022-09-05T04:12:00.424Z,994.9243
2022-09-05T04:13:00.596Z,994.8378
2022-09-05T04:14:00.799Z,995.1619
2022-09-05T04:15:00.953Z,994.9243
2022-09-05T04:16:01.086Z,995.0036
2022-09-05T04:17:01.283Z,995.1695
2022-09-05T04:18:03.943Z,995.0542
2022-09-05T04:19:00.534Z,995.0324
2022-09-05T04:20:00.716Z,994.8888
2022-09-05T04:21:00.839Z,994.9682
2022-09-05T04:22:00.997Z,994.9682
2022-09-05T04:23:01.146Z,994.9677
2022-09-05T04:24:00.301Z,994.9677
2022-09-05T04:25:00.469Z,994.8674
2022-09-05T04:26:05.118Z,994.99
2022-09-05T04:27:00.755Z,995.0547
2022-09-05T04:28:00.904Z,994.99
2022-09-05T04:29:01.048Z,995.0117
2022-09-05T04:30:01.201Z,995.1271
2022-09-05T04:31:00.355Z,994.9975
2022-09-05T04:32:18.287Z,994.9617
2022-09-05T04:33:00.667Z,994.9617
2022-09-05T04:34:00.818Z,994.9762
2022-09-05T04:35:00.960Z,995.178
2022-09-05T04:36:01.146Z,995.4228
2022-09-05T04:37:00.274Z,995.2135
2022-09-05T04:38:00.432Z,995.1271
2022-09-05T04:39:00.573Z,995.1993
2022-09-05T04:40:00.804Z,995.0916
2022-09-05T04:41:00.894Z,995.351
2022-09-05T04:42:01.030Z,995.1635
2022-09-05T04:43:01.167Z,995.1347
2022-09-05T04:44:00.317Z,995.1634
2022-09-05T04:45:00.472Z,995.0627
2022-09-05T04:46:00.706Z,995.1634
2022-09-05T04:47:00.759Z,995.077
2022-09-05T04:48:00.903Z,995.3869
2022-09-05T04:49:01.056Z,995.1275
2022-09-05T04:50:01.201Z,995.3151
2022-09-05T04:51:00.365Z,995.0486
2022-09-05T04:52:01.078Z,995.2361
2022-09-05T04:53:00.653Z,995.2074
2022-09-05T04:54:00.801Z,995.3227
2022-09-05T04:55:00.949Z,995.2939
2022-09-05T04:56:01.138Z,995.2362
2022-09-05T04:57:01.252Z,995.2074
2022-09-05T04:58:00.398Z,995.2074
2022-09-05T05:01:04.482Z,995.265
2022-09-05T05:01:46.037Z,995.2074
2022-09-05T05:06:00.911Z,995.2433
2022-09-05T05:06:08.547Z,995.3438
2022-09-05T05:06:11.541Z,995.3941
2022-09-05T05:06:12.053Z,995.1062
2022-09-05T05:06:17.345Z,995.3438
2022-09-05T05:06:31.646Z,995.3869
2022-09-05T05:07:07.655Z,995.3438
2022-09-05T05:08:01.106Z,995.351
2022-09-05T05:09:01.046Z,995.3869
2022-09-05T05:11:11.535Z,995.3
2022-09-05T05:15:02.771Z,995.2424
2022-09-05T05:17:55.392Z,995.1194
2022-09-05T05:17:56.336Z,995.3289
2022-09-05T05:17:59.036Z,995.1053
2022-09-05T05:18:07.793Z,995.2854
2022-09-05T05:18:10.720Z,995.2422
2022-09-05T05:18:15.778Z,995.2565
2022-09-05T05:19:07.099Z,995.2564
2022-09-05T05:20:41.689Z,995.1483
2022-09-05T05:21:00.921Z,995.4002
2022-09-05T05:22:01.048Z,995.3425
2022-09-05T05:23:07.786Z,995.3425
2022-09-05T05:24:00.317Z,995.2849
2022-09-05T05:25:00.463Z,995.3425
2022-09-05T05:26:00.621Z,995.4433
2022-09-05T05:27:00.786Z,995.5368
2022-09-05T05:28:00.905Z,995.544
2022-09-05T05:29:01.051Z,995.3421
2022-09-05T05:30:01.209Z,995.414
2022-09-05T05:31:01.548Z,995.4717
2022-09-05T05:32:00.566Z,995.3993
2022-09-05T05:33:00.659Z,995.5435
2022-09-05T05:34:00.810Z,995.5218
2022-09-05T05:35:00.958Z,995.3487
2022-09-05T05:36:01.104Z,995.5719
2022-09-05T05:38:00.374Z,995.5565
2022-09-05T05:39:00.515Z,995.4121
2022-09-05T05:40:00.687Z,995.4264
2022-09-05T05:41:00.809Z,995.5631
2022-09-05T05:42:19.470Z,995.5774
2022-09-05T05:43:01.125Z,995.727
2022-09-05T05:44:01.240Z,995.6768
2022-09-05T05:45:00.392Z,995.4473
2022-09-05T05:46:00.621Z,995.5553
2022-09-05T05:47:00.681Z,995.5553
2022-09-05T05:48:00.844Z,995.6256
2022-09-05T05:49:00.975Z,995.5548
2022-09-05T05:50:01.143Z,995.7187
2022-09-05T05:51:00.272Z,995.7618
2022-09-05T05:52:02.359Z,995.5469
2022-09-05T05:53:00.570Z,995.6676
2022-09-05T05:54:00.711Z,995.5033
2022-09-05T05:55:40.897Z,995.6025
2022-09-05T05:56:01.020Z,995.6095
2022-09-05T05:57:01.179Z,995.9192
2022-09-05T05:58:00.324Z,995.7748
2022-09-05T05:59:00.473Z,995.4371
2022-09-05T06:00:00.599Z,995.6154
2022-09-05T06:01:00.764Z,995.6293
2022-09-05T06:02:01.006Z,995.5733
2022-09-05T06:03:25.787Z,995.5651
2022-09-05T06:04:01.205Z,995.5288
2022-09-05T06:05:03.840Z,995.5141
2022-09-05T06:06:00.474Z,995.6132
2022-09-05T06:07:00.606Z,995.5497
2022-09-05T06:09:45.931Z,995.6128
2022-09-05T06:14:24.838Z,995.6049
2022-09-05T06:14:49.504Z,995.6913
2022-09-05T06:14:50.947Z,995.4614
2022-09-05T06:14:59.170Z,995.497
2022-09-05T06:15:00.914Z,995.625
2022-09-05T06:15:05.954Z,995.6761
2022-09-05T06:15:09.385Z,995.733
2022-09-05T06:16:02.803Z,995.6098
2022-09-05T06:17:01.140Z,995.532
2022-09-05T06:18:00.280Z,995.6023
2022-09-05T06:19:00.660Z,995.4808
2022-09-05T06:21:19.757Z,995.6161
2022-09-05T06:22:09.002Z,995.5086
2022-09-05T06:22:09.196Z,995.6733
2022-09-05T06:23:00.999Z,995.4939
2022-09-05T06:24:01.167Z,995.5732
2022-09-05T06:25:07.719Z,995.6074
2022-09-05T06:26:00.466Z,995.5221
2022-09-05T06:27:00.588Z,995.4348
2022-09-05T06:28:17.613Z,995.6208
2022-09-05T06:29:00.901Z,995.7436
2022-09-05T06:30:01.059Z,995.4556
2022-09-05T06:31:29.758Z,995.6707
2022-09-05T06:32:00.374Z,995.6053
2022-09-05T06:33:00.519Z,995.5416
2022-09-05T06:34:00.661Z,995.6767
2022-09-05T06:35:00.822Z,995.454
2022-09-05T06:36:04.381Z,995.3524
2022-09-05T06:37:01.147Z,995.4606
2022-09-05T06:38:00.297Z,995.453
2022-09-05T06:39:00.444Z,995.5468
2022-09-05T06:40:00.709Z,995.38
2022-09-05T06:41:00.765Z,995.4375
2022-09-05T06:42:00.893Z,995.4589
2022-09-05T06:43:01.054Z,995.4369
2022-09-05T06:44:01.192Z,995.6157
2022-09-05T06:45:00.342Z,995.5302
2022-09-05T06:46:00.546Z,995.615
2022-09-05T06:47:23.949Z,995.566
2022-09-05T06:48:00.808Z,995.4496
2022-09-05T06:49:32.414Z,995.5505
2022-09-05T06:50:05.640Z,995.55
2022-09-05T06:51:07.953Z,995.6347
2022-09-05T06:52:04.185Z,995.52
2022-09-05T06:53:07.044Z,995.6123
2022-09-05T06:54:00.680Z,995.3818
2022-09-05T06:55:00.826Z,995.5263
2022-09-05T06:56:00.991Z,995.3519
2022-09-05T06:57:01.158Z,995.4239
2022-09-05T06:58:00.309Z,995.4814
2022-09-05T06:59:00.439Z,995.4809
2022-09-05T07:00:00.578Z,995.5676
2022-09-05T07:01:00.828Z,995.4149
2022-09-05T07:02:01.633Z,995.6519
2022-09-05T07:03:01.130Z,995.5373
2022-09-05T07:04:33.161Z,995.5074
2022-09-05T07:05:37.855Z,995.7156
2022-09-05T07:06:00.475Z,995.5133
2022-09-05T07:07:02.304Z,995.3458
2022-09-05T07:08:00.770Z,995.4106
2022-09-05T07:09:00.902Z,995.4462
2022-09-05T07:10:08.880Z,995.6035
2022-09-05T07:11:11.507Z,995.5031
2022-09-05T07:12:00.370Z,995.6242
2022-09-05T07:13:00.498Z,995.6091
2022-09-05T07:14:00.639Z,995.674
2022-09-05T07:15:08.344Z,995.6517
2022-09-05T07:16:00.998Z,995.6221
2022-09-05T07:17:01.129Z,995.5798
2022-09-05T07:18:10.645Z,995.4411
2022-09-05T07:19:03.221Z,995.4768
2022-09-05T07:20:00.535Z,995.5199
2022-09-05T07:21:15.631Z,995.6993
2022-09-05T07:22:00.861Z,995.577
2022-09-05T07:23:25.798Z,995.5106
2022-09-05T07:24:06.488Z,995.6461
2022-09-05T07:25:00.296Z,995.7183
2022-09-05T07:26:00.441Z,995.4942
2022-09-05T07:27:00.624Z,995.4501
2022-09-05T07:28:28.705Z,995.4717
2022-09-05T07:29:00.889Z,995.5152
2022-09-05T07:30:01.890Z,995.5367
2022-09-05T07:31:01.262Z,995.5286
2022-09-05T07:32:00.414Z,995.543
2022-09-05T07:33:00.494Z,995.5135
2022-09-05T07:34:00.635Z,995.6788
2022-09-05T07:35:00.793Z,995.4983
2022-09-05T07:36:00.940Z,995.5417
2022-09-05T07:37:13.969Z,995.4611
2022-09-05T07:38:01.242Z,995.453
2022-09-05T07:39:25.279Z,995.6543
2022-09-05T07:40:05.317Z,995.5382
2022-09-05T07:41:00.700Z,995.6662
2022-09-05T07:42:00.869Z,995.6794
2022-09-05T07:43:10.164Z,995.6056
2022-09-05T07:44:01.160Z,995.5705
2022-09-05T07:45:00.303Z,995.6557
2022-09-05T07:46:00.478Z,995.482
2022-09-05T07:47:00.602Z,995.8013
2022-09-05T07:48:00.755Z,995.626
2022-09-05T07:49:00.909Z,995.5475
2022-09-05T07:50:32.492Z,995.6333
2022-09-05T07:56:50.856Z,995.6982
2022-09-05T07:56:55.619Z,995.5323
2022-09-05T07:57:02.240Z,995.6982
2022-09-05T07:57:08.360Z,995.6752
2022-09-05T07:57:09.637Z,995.5022
2022-09-05T07:57:09.948Z,995.6748
2022-09-05T07:58:00.255Z,995.746
2022-09-05T07:59:00.404Z,995.6723
2022-09-05T08:00:00.541Z,995.7228
2022-09-05T08:01:00.815Z,995.5777
2022-09-05T08:02:00.847Z,995.6337
2022-09-05T08:03:01.051Z,995.677
2022-09-05T08:04:04.012Z,995.5611
2022-09-05T08:05:00.339Z,995.5094
2022-09-05T08:06:00.462Z,995.4796
2022-09-05T08:07:48.759Z,995.5595
2022-09-05T08:08:00.754Z,995.6083
2022-09-05T08:09:21.495Z,995.6151
2022-09-05T08:10:06.093Z,995.7459
2022-09-05T08:11:22.800Z,995.4173
2022-09-05T08:12:09.879Z,995.4672
2022-09-05T08:13:24.167Z,995.5318
2022-09-05T08:14:40.505Z,995.4867
2022-09-05T08:15:00.795Z,995.435
2022-09-05T08:16:10.674Z,995.4935
2022-09-05T08:17:01.149Z,995.6012
2022-09-05T08:18:01.269Z,995.4264
2022-09-05T08:19:00.377Z,995.5505
2022-09-05T08:20:05.518Z,995.4399
2022-09-05T08:21:00.682Z,995.3875
2022-09-05T08:22:00.815Z,995.5485
2022-09-05T08:23:00.995Z,995.526
2022-09-05T08:24:01.116Z,995.6182
2022-09-05T08:25:00.263Z,995.6097
2022-09-05T08:26:00.405Z,995.471
2022-09-05T08:27:00.577Z,995.4117
2022-09-05T08:28:00.692Z,995.4912
2022-09-05T08:29:00.839Z,995.5713
2022-09-05T08:30:24.551Z,995.3646
2022-09-05T08:31:01.185Z,995.5617
2022-09-05T08:32:00.275Z,995.6098
2022-09-05T08:33:10.381Z,995.4269
2022-09-05T08:34:00.561Z,995.3598
2022-09-05T08:35:00.701Z,995.4768
2022-09-05T08:36:01.230Z,995.6146
2022-09-05T08:37:01.027Z,995.3141
2022-09-05T08:38:01.128Z,995.4895
2022-09-05T08:39:00.264Z,995.5399
2022-09-05T08:40:11.498Z,995.4579
2022-09-05T08:41:00.581Z,995.3173
2022-09-05T08:42:05.814Z,995.354
2022-09-05T08:46:37.717Z,995.4051
2022-09-05T08:46:40.604Z,995.521
2022-09-05T08:46:44.006Z,995.4044
2022-09-05T08:46:47.586Z,995.3962
2022-09-05T08:47:01.074Z,995.2849
2022-09-05T08:48:00.619Z,995.3734
2022-09-05T08:49:11.355Z,995.3803
2022-09-05T08:50:00.904Z,995.3868
2022-09-05T08:51:01.062Z,995.4448
2022-09-05T08:52:01.233Z,995.437
2022-09-05T08:53:00.355Z,995.3631
2022-09-05T08:54:00.501Z,995.414
2022-09-05T08:55:06.465Z,995.5093
2022-09-05T08:56:00.802Z,995.4503
2022-09-05T08:57:00.983Z,995.568
2022-09-05T08:58:01.103Z,995.4274
2022-09-05T08:59:28.524Z,995.2868
2022-09-05T09:00:20.353Z,995.5595
2022-09-05T09:01:04.532Z,995.3816
2022-09-05T09:02:44.636Z,995.2054
2022-09-05T09:03:04.356Z,995.2346
2022-09-05T09:04:01.130Z,995.3813
2022-09-05T09:05:02.884Z,995.3437
2022-09-05T09:06:13.598Z,995.3282
2022-09-05T09:07:36.805Z,995.1204
2022-09-05T09:08:00.663Z,995.2897
2022-09-05T09:09:05.364Z,995.4215
2022-09-05T09:10:00.956Z,995.2373
2022-09-05T09:11:01.106Z,995.2148
2022-09-05T09:12:00.256Z,995.2585
2022-09-05T09:13:00.419Z,995.199
2022-09-05T09:14:00.551Z,995.2431
2022-09-05T09:15:00.691Z,995.3318
2022-09-05T09:16:00.890Z,995.1986
2022-09-05T09:17:00.998Z,995.0505
2022-09-05T09:18:01.173Z,995.1689
2022-09-05T09:19:00.296Z,995.1835
2022-09-05T09:20:00.449Z,995.1539
2022-09-05T09:21:00.597Z,995.2868
2022-09-05T09:22:00.742Z,995.3233
2022-09-05T09:23:00.906Z,995.1671
2022-09-05T09:24:01.052Z,995.1745
2022-09-05T09:25:15.323Z,995.2773
2022-09-05T09:26:00.342Z,995.2181
2022-09-05T09:27:00.476Z,995.123
2022-09-05T09:28:31.614Z,995.3311
2022-09-05T09:29:00.760Z,995.1908
2022-09-05T09:30:00.908Z,995.279
2022-09-05T09:31:01.133Z,995.2719
2022-09-05T09:32:01.222Z,995.2864
2022-09-05T09:33:00.369Z,995.2423
2022-09-05T09:34:00.527Z,995.1393
2022-09-05T09:35:00.774Z,995.2791
2022-09-05T09:36:07.894Z,995.3233
2022-09-05T09:37:00.965Z,995.19
2022-09-05T09:38:01.109Z,995.1308
2022-09-05T09:39:13.124Z,995.0865
2022-09-05T09:40:00.469Z,995.1079
2022-09-05T09:41:02.972Z,995.2181
2022-09-05T09:42:00.696Z,995.041
2022-09-05T09:43:04.067Z,995.1589
2022-09-05T09:44:00.993Z,995.0103
2022-09-05T09:45:01.129Z,994.9511
2022-09-05T09:46:00.298Z,995.0773
2022-09-05T09:47:00.488Z,995.0248
2022-09-05T09:48:00.567Z,995.1501
2022-09-05T09:49:00.719Z,995.0454
2022-09-05T09:50:00.858Z,995.105
2022-09-05T09:51:01.024Z,995.0313
2022-09-05T09:52:01.175Z,995.0317
2022-09-05T09:53:00.316Z,995.0691
2022-09-05T09:54:00.487Z,995.0764
2022-09-05T09:55:00.632Z,995.0468
2022-09-05T09:56:00.818Z,994.9579
2022-09-05T09:57:00.959Z,994.9501
2022-09-05T09:58:01.125Z,994.9045
2022-09-05T09:59:01.253Z,995.0148
2022-09-05T10:00:00.375Z,994.9555
2022-09-05T10:01:00.510Z,995.0289
2022-09-05T10:03:02.180Z,995.1396
2022-09-05T10:06:28.815Z,995.2003
2022-09-05T10:08:59.782Z,994.8973
2022-09-05T10:10:34.682Z,995.0303
2022-09-05T10:10:35.274Z,994.8822
2022-09-05T10:10:43.851Z,995.045
2022-09-05T10:10:45.155Z,994.8963
2022-09-05T10:10:46.170Z,994.837
2022-09-05T10:10:58.217Z,994.837
2022-09-05T10:11:37.610Z,995.0144
2022-09-05T10:12:01.912Z,994.9551
2022-09-05T10:13:08.692Z,994.9555
2022-09-05T10:14:00.475Z,994.8666
2022-09-05T10:15:17.432Z,995.0289
2022-09-05T10:16:00.958Z,994.8362
2022-09-05T10:17:00.938Z,994.8362
2022-09-05T10:18:01.074Z,994.7914
2022-09-05T10:19:01.212Z,994.992
2022-09-05T10:20:10.595Z,994.7919
2022-09-05T10:21:16.094Z,994.7326
2022-09-05T10:23:00.815Z,994.7856
2022-09-05T10:24:00.952Z,994.7927
2022-09-05T10:25:01.836Z,994.7927
2022-09-05T10:26:01.897Z,994.9551
2022-09-05T10:27:00.396Z,994.9551
2022-09-05T10:28:00.578Z,994.837
2022-09-05T10:29:26.698Z,994.8963
2022-09-05T10:30:00.845Z,994.6883
2022-09-05T10:32:58.057Z,994.7025
2022-09-05T10:35:08.290Z,994.7394
2022-09-05T10:35:11.305Z,994.7465
2022-09-05T10:35:18.207Z,994.7544
2022-09-05T10:35:22.836Z,994.7175
2022-09-05T10:36:00.804Z,994.7326
2022-09-05T10:37:00.906Z,994.6883
2022-09-05T10:38:06.354Z,994.837
2022-09-05T10:39:01.195Z,994.7773
2022-09-05T10:40:00.477Z,994.8001
2022-09-05T10:41:20.095Z,994.6806
2022-09-05T10:42:03.397Z,994.6531
2022-09-05T10:43:01.394Z,994.594
2022-09-05T10:44:00.988Z,994.6533
2022-09-05T10:45:01.133Z,994.7316
2022-09-05T10:46:00.303Z,994.6666
2022-09-05T10:47:00.475Z,994.5846
2022-09-05T10:48:08.430Z,994.6286
2022-09-05T10:49:00.735Z,994.8116
2022-09-05T10:50:00.888Z,994.6292
2022-09-05T10:51:01.035Z,994.7825
2022-09-05T10:52:04.036Z,994.5485
2022-09-05T10:53:00.340Z,994.7241
2022-09-05T10:54:00.557Z,994.6723
2022-09-05T10:55:14.238Z,994.5923
2022-09-05T10:56:00.837Z,994.4955
2022-09-05T10:57:00.938Z,994.5767
2022-09-05T10:58:01.099Z,994.5912
2022-09-05T11:01:38.969Z,994.5241
2022-09-05T11:02:22.124Z,994.5242
2022-09-05T11:02:27.377Z,994.6132
2022-09-05T11:02:29.326Z,994.6501
2022-09-05T11:03:00.915Z,994.5761
2022-09-05T11:04:01.092Z,994.6723
2022-09-05T11:05:01.172Z,994.6428
2022-09-05T11:06:08.809Z,994.6422
2022-09-05T11:07:00.393Z,994.4939
2022-09-05T11:08:00.538Z,994.5236
2022-09-05T11:09:00.682Z,994.6422
2022-09-05T11:10:00.852Z,994.5315
2022-09-05T11:11:00.975Z,994.4643
2022-09-05T11:12:01.116Z,994.4638
2022-09-05T11:13:00.266Z,994.4779
2022-09-05T11:14:00.429Z,994.5517
2022-09-05T11:15:00.618Z,994.6551
2022-09-05T11:16:04.603Z,994.4766
2022-09-05T11:17:00.882Z,994.4834
2022-09-05T11:18:01.024Z,994.4163
2022-09-05T11:19:01.178Z,994.4005
2022-09-05T11:20:00.327Z,994.3844
2022-09-05T11:21:00.458Z,994.2729
2022-09-05T11:22:03.954Z,994.4438
2022-09-05T11:23:00.772Z,994.437
2022-09-05T11:24:00.924Z,994.3709
2022-09-05T11:25:01.090Z,994.3115
2022-09-05T11:26:01.223Z,994.3267
2022-09-05T11:27:24.775Z,994.2522
2022-09-05T11:28:00.522Z,994.3407
2022-09-05T11:29:01.027Z,994.2225
2022-09-05T11:30:00.852Z,994.3417
2022-09-05T11:31:01.023Z,994.2539
2022-09-05T11:32:46.427Z,994.2839
2022-09-05T11:38:01.262Z,994.2539
2022-09-05T11:39:02.119Z,994.2096
2022-09-05T11:39:51.793Z,994.2702
2022-09-05T11:39:55.961Z,994.1666
2022-09-05T11:40:06.078Z,994.3881
2022-09-05T11:40:06.267Z,994.2999
2022-09-05T11:40:06.719Z,994.1668
2022-09-05T11:40:28.521Z,994.2246
2022-09-05T11:41:08.275Z,994.2231
2022-09-05T11:42:00.686Z,994.2522
2022-09-05T11:43:00.790Z,994.1923
2022-09-05T11:44:08.435Z,994.2954
2022-09-05T11:45:01.131Z,994.1766
2022-09-05T11:46:01.286Z,994.3178
2022-09-05T11:47:28.097Z,994.2287
2022-09-05T11:48:00.546Z,994.2813
2022-09-05T11:49:00.714Z,994.2584
2022-09-05T11:50:00.858Z,994.139
2022-09-05T11:51:00.995Z,994.1313